createdAt,value
2023-03-28T00:00:52.317Z,5.00
2023-03-28T00:03:22.473Z,5.00
2023-03-28T00:05:55.263Z,5.00
2023-03-28T00:08:23.345Z,5.00
2023-03-28T00:10:51.297Z,5.00
2023-03-28T00:13:21.339Z,4.90
2023-03-28T00:15:52.916Z,4.90
2023-03-28T00:18:22.332Z,4.90
2023-03-28T00:20:50.248Z,4.90
2023-03-28T00:23:18.310Z,4.90
2023-03-28T00:25:46.287Z,4.90
2023-03-28T00:28:14.182Z,4.90
2023-03-28T00:30:42.064Z,4.90
2023-03-28T00:33:09.974Z,4.90
2023-03-28T00:35:39.161Z,4.80
2023-03-28T00:38:07.086Z,4.80
2023-03-28T00:40:38.777Z,4.70
2023-03-28T00:43:06.757Z,4.70
2023-03-28T00:45:35.313Z,4.70
2023-03-28T00:48:14.428Z,4.70
2023-03-28T00:50:48.800Z,4.60
2023-03-28T00:53:19.915Z,4.60
2023-03-28T00:55:50.155Z,4.50
2023-03-28T00:58:23.897Z,4.40
2023-03-28T01:00:52.096Z,4.40
2023-03-28T01:03:22.568Z,4.40
2023-03-28T01:05:52.207Z,4.40
2023-03-28T01:08:23.365Z,4.40
2023-03-28T01:10:51.314Z,4.30
2023-03-28T01:13:21.541Z,4.30
2023-03-28T01:15:51.284Z,4.30
2023-03-28T01:18:22.772Z,4.30
2023-03-28T01:21:22.380Z,4.30
2023-03-28T01:24:24.769Z,4.30
2023-03-28T01:26:55.426Z,4.30
2023-03-28T01:29:54.725Z,4.20
2023-03-28T01:32:47.204Z,4.20
2023-03-28T01:35:41.460Z,4.20
2023-03-28T01:38:17.660Z,4.20
2023-03-28T01:40:52.723Z,4.20
2023-03-28T01:43:31.784Z,4.20
2023-03-28T01:46:06.762Z,4.10
2023-03-28T01:48:45.132Z,4.10
2023-03-28T01:51:21.817Z,4.10
2023-03-28T01:53:59.364Z,4.10
2023-03-28T01:56:34.277Z,4.10
2023-03-28T01:59:08.462Z,4.10
2023-03-28T02:01:41.245Z,4.00
2023-03-28T02:04:20.466Z,4.00
2023-03-28T02:06:52.648Z,4.00
2023-03-28T02:09:25.988Z,4.00
2023-03-28T02:11:59.047Z,3.90
2023-03-28T02:14:31.236Z,3.90
2023-03-28T02:17:04.839Z,3.90
2023-03-28T02:19:37.815Z,3.90
2023-03-28T02:22:15.380Z,3.80
2023-03-28T02:24:50.316Z,3.80
2023-03-28T02:27:19.007Z,3.80
2023-03-28T02:29:47.842Z,3.80
2023-03-28T02:32:16.084Z,3.80
2023-03-28T02:34:45.671Z,3.70
2023-03-28T02:37:23.048Z,3.70
2023-03-28T02:40:10.163Z,3.70
2023-03-28T02:43:10.316Z,3.70
2023-03-28T02:45:58.516Z,3.70
2023-03-28T02:48:37.714Z,3.70
2023-03-28T02:51:15.096Z,3.70
2023-03-28T02:53:51.278Z,3.70
2023-03-28T02:56:25.662Z,3.60
2023-03-28T02:58:56.466Z,3.60
2023-03-28T03:01:29.051Z,3.60
2023-03-28T03:03:58.310Z,3.60
2023-03-28T03:06:26.661Z,3.60
2023-03-28T03:08:54.715Z,3.60
2023-03-28T03:11:24.996Z,3.60
2023-03-28T03:13:52.942Z,3.60
2023-03-28T03:16:20.917Z,3.60
2023-03-28T03:18:48.840Z,3.60
2023-03-28T03:21:17.892Z,3.60
2023-03-28T03:23:45.860Z,3.60
2023-03-28T03:26:13.745Z,3.60
2023-03-28T03:28:44.484Z,3.60
2023-03-28T03:31:12.461Z,3.60
2023-03-28T03:33:41.467Z,3.60
2023-03-28T03:36:12.656Z,3.60
2023-03-28T03:38:40.826Z,3.60
2023-03-28T03:41:08.859Z,3.50
2023-03-28T03:43:36.737Z,3.60
2023-03-28T03:46:06.368Z,3.50
2023-03-28T03:48:34.552Z,3.50
2023-03-28T03:51:02.438Z,3.50
2023-03-28T03:53:30.440Z,3.50
2023-03-28T03:56:02.071Z,3.40
2023-03-28T03:58:30.195Z,3.40
2023-03-28T04:00:58.736Z,3.40
2023-03-28T04:03:28.961Z,3.40
2023-03-28T04:05:58.148Z,3.40
2023-03-28T04:08:26.428Z,3.40
2023-03-28T04:10:54.308Z,3.40
2023-03-28T04:13:22.208Z,3.40
2023-03-28T04:15:50.364Z,3.30
2023-03-28T04:18:20.405Z,3.30
2023-03-28T04:20:55.287Z,3.30
2023-03-28T04:23:25.792Z,3.20
2023-03-28T04:25:55.326Z,3.20
2023-03-28T04:28:25.986Z,3.00
2023-03-28T04:30:54.660Z,2.90
2023-03-28T04:33:25.020Z,2.80
2023-03-28T04:35:57.440Z,2.80
2023-03-28T04:38:27.150Z,2.70
2023-03-28T04:40:57.668Z,2.70
2023-03-28T04:43:26.454Z,2.60
2023-03-28T04:45:54.683Z,2.60
2023-03-28T04:48:23.139Z,2.60
2023-03-28T04:50:51.034Z,2.60
2023-03-28T04:53:21.473Z,2.70
2023-03-28T04:55:50.326Z,2.70
2023-03-28T04:58:19.312Z,2.70
2023-03-28T05:00:47.548Z,2.80
2023-03-28T05:05:46.462Z,2.80
2023-03-28T05:08:15.216Z,2.80
2023-03-28T05:10:45.911Z,2.80
2023-03-28T05:13:14.156Z,2.80
2023-03-28T05:15:42.313Z,2.70
2023-03-28T05:18:11.561Z,2.80
2023-03-28T05:20:39.530Z,2.70
2023-03-28T05:23:07.503Z,2.70
2023-03-28T05:25:35.773Z,2.60
2023-03-28T05:28:06.011Z,2.60
2023-03-28T05:30:34.138Z,2.50
2023-03-28T05:33:02.533Z,2.50
2023-03-28T05:35:30.642Z,2.50
2023-03-28T05:37:58.671Z,2.40
2023-03-28T05:40:26.999Z,2.40
2023-03-28T05:42:54.911Z,2.40
2023-03-28T05:45:24.157Z,2.40
2023-03-28T05:47:52.517Z,2.40
2023-03-28T05:50:20.875Z,2.40
2023-03-28T05:52:48.792Z,2.40
2023-03-28T05:55:16.825Z,2.40
2023-03-28T05:57:45.005Z,2.40
2023-03-28T06:00:14.057Z,2.40
2023-03-28T06:02:44.089Z,2.40
2023-03-28T06:05:12.559Z,2.40
2023-03-28T06:07:42.962Z,2.40
2023-03-28T06:10:12.520Z,2.50
2023-03-28T06:12:40.454Z,2.60
2023-03-28T06:15:09.865Z,2.60
2023-03-28T06:17:38.266Z,2.70
2023-03-28T06:20:09.912Z,2.80
2023-03-28T06:22:38.058Z,2.90
2023-03-28T06:25:07.016Z,3.00
2023-03-28T06:27:35.558Z,3.10
2023-03-28T06:30:04.563Z,3.10
2023-03-28T06:32:32.783Z,3.10
2023-03-28T06:35:00.759Z,3.00
2023-03-28T06:37:30.001Z,3.00
2023-03-28T06:39:57.986Z,3.00
2023-03-28T06:42:27.090Z,3.10
2023-03-28T06:44:54.987Z,3.10
2023-03-28T06:47:23.015Z,3.20
2023-03-28T06:49:51.005Z,3.30
2023-03-28T06:52:18.946Z,3.30
2023-03-28T06:54:48.633Z,3.40
2023-03-28T06:57:16.898Z,3.50
2023-03-28T06:59:44.840Z,3.60
2023-03-28T07:02:13.137Z,3.70
2023-03-28T07:04:41.233Z,3.90
2023-03-28T07:07:09.515Z,3.90
2023-03-28T07:09:37.832Z,4.10
2023-03-28T07:12:07.516Z,4.20
2023-03-28T07:14:36.219Z,4.30
2023-03-28T07:17:04.193Z,4.30
2023-03-28T07:19:32.257Z,4.30
2023-03-28T07:22:00.310Z,4.40
2023-03-28T07:24:28.339Z,4.40
2023-03-28T07:27:11.861Z,4.40
2023-03-28T07:29:43.875Z,4.50
2023-03-28T07:32:11.827Z,4.50
2023-03-28T07:34:39.786Z,4.50
2023-03-28T07:37:08.807Z,4.50
2023-03-28T07:39:39.739Z,4.60
2023-03-28T07:42:11.651Z,4.60
2023-03-28T07:44:41.799Z,4.70
2023-03-28T07:47:12.248Z,4.80
2023-03-28T07:49:41.106Z,4.80
2023-03-28T07:52:09.124Z,4.90
2023-03-28T07:54:37.259Z,4.90
2023-03-28T07:57:05.817Z,5.00
2023-03-28T07:59:34.030Z,5.10
2023-03-28T08:02:02.678Z,5.20
2023-03-28T08:04:32.098Z,5.20
2023-03-28T08:07:00.328Z,5.30
2023-03-28T08:09:28.571Z,5.30
2023-03-28T08:11:56.506Z,5.40
2023-03-28T08:14:24.403Z,5.40
2023-03-28T08:16:52.887Z,5.50
2023-03-28T08:19:21.050Z,5.60
2023-03-28T08:21:50.323Z,5.70
2023-03-28T08:24:28.945Z,5.70
2023-03-28T08:27:01.611Z,5.80
2023-03-28T08:29:29.465Z,5.80
2023-03-28T08:31:57.583Z,5.90
2023-03-28T08:34:25.842Z,5.90
2023-03-28T08:36:55.092Z,5.90
2023-03-28T08:39:23.360Z,5.90
2023-03-28T08:42:10.749Z,5.90
2023-03-28T08:44:56.195Z,6.00
2023-03-28T08:47:29.570Z,6.00
2023-03-28T08:50:03.522Z,6.00
2023-03-28T08:52:33.143Z,6.00
2023-03-28T08:55:06.313Z,6.10
2023-03-28T08:57:36.042Z,6.10
2023-03-28T09:00:14.879Z,6.30
2023-03-28T09:02:43.342Z,6.40
2023-03-28T09:05:23.157Z,6.40
2023-03-28T09:07:59.801Z,6.40
2023-03-28T09:10:34.139Z,6.50
2023-03-28T09:13:17.226Z,6.50
2023-03-28T09:15:59.350Z,6.50
2023-03-28T09:18:54.762Z,6.50
2023-03-28T09:21:29.244Z,6.50
2023-03-28T09:24:15.338Z,6.60
2023-03-28T09:26:58.578Z,6.70
2023-03-28T09:29:28.699Z,6.80
2023-03-28T09:32:00.663Z,6.80
2023-03-28T09:34:34.696Z,6.80
2023-03-28T09:37:08.484Z,6.80
2023-03-28T09:39:43.217Z,6.90
2023-03-28T09:42:16.813Z,7.00
2023-03-28T09:44:54.969Z,7.00
2023-03-28T09:47:23.422Z,7.00
2023-03-28T09:50:02.259Z,7.10
2023-03-28T09:52:37.824Z,7.10
2023-03-28T09:55:16.874Z,7.10
2023-03-28T09:58:04.000Z,7.20
2023-03-28T10:00:37.040Z,7.30
2023-03-28T10:03:08.188Z,7.20
2023-03-28T10:05:40.130Z,7.30
2023-03-28T10:08:22.283Z,7.20
2023-03-28T10:11:01.815Z,7.20
2023-03-28T10:13:36.386Z,7.20
2023-03-28T10:16:06.307Z,7.20
2023-03-28T10:18:34.833Z,7.10
2023-03-28T10:21:11.642Z,7.20
2023-03-28T10:23:41.093Z,7.30
2023-03-28T10:26:14.890Z,7.30
2023-03-28T10:28:44.282Z,7.30
2023-03-28T10:31:23.598Z,7.40
2023-03-28T10:33:53.532Z,7.50
2023-03-28T10:36:31.458Z,7.40
2023-03-28T10:39:00.714Z,7.40
2023-03-28T10:41:31.138Z,7.40
2023-03-28T10:43:59.881Z,7.40
2023-03-28T10:46:32.608Z,7.40
2023-03-28T10:49:04.188Z,7.50
2023-03-28T10:51:33.461Z,7.50
2023-03-28T10:54:19.778Z,7.40
2023-03-28T10:56:56.845Z,7.50
2023-03-28T10:59:42.729Z,7.40
2023-03-28T11:02:39.885Z,7.40
2023-03-28T11:05:25.805Z,7.30
2023-03-28T11:08:04.126Z,7.30
2023-03-28T11:10:38.250Z,7.30
2023-03-28T11:13:22.717Z,7.30
2023-03-28T11:15:59.230Z,7.30
2023-03-28T11:18:42.050Z,7.30
2023-03-28T11:21:21.023Z,7.30
2023-03-28T11:24:00.707Z,7.30
2023-03-28T11:26:40.032Z,7.30
2023-03-28T11:29:19.661Z,7.30
2023-03-28T11:31:54.583Z,7.30
2023-03-28T11:34:27.661Z,7.30
2023-03-28T11:37:03.329Z,7.30
2023-03-28T11:39:38.628Z,7.40
2023-03-28T11:42:14.101Z,7.30
2023-03-28T11:44:47.317Z,7.30
2023-03-28T11:47:19.734Z,7.40
2023-03-28T11:49:52.636Z,7.40
2023-03-28T11:52:26.548Z,7.50
2023-03-28T11:55:04.715Z,7.60
2023-03-28T11:57:39.499Z,7.70
2023-03-28T12:00:32.221Z,7.70
2023-03-28T12:03:10.190Z,7.80
2023-03-28T12:05:43.735Z,7.80
2023-03-28T12:08:15.657Z,7.80
2023-03-28T12:10:47.227Z,7.80
2023-03-28T12:13:19.843Z,7.70
2023-03-28T12:15:52.767Z,7.70
2023-03-28T12:18:28.448Z,7.70
2023-03-28T12:21:05.103Z,7.70
2023-03-28T12:23:38.921Z,7.80
2023-03-28T12:26:21.743Z,7.80
2023-03-28T12:28:54.173Z,7.80
2023-03-28T12:31:29.497Z,7.80
2023-03-28T12:34:06.564Z,7.80
2023-03-28T12:36:39.185Z,7.90
2023-03-28T12:39:34.355Z,8.00
2023-03-28T12:42:04.507Z,8.00
2023-03-28T12:44:40.863Z,8.00
2023-03-28T12:47:16.310Z,8.10
2023-03-28T12:49:49.426Z,8.00
2023-03-28T12:52:22.446Z,8.10
2023-03-28T12:55:01.156Z,8.10
2023-03-28T12:57:48.073Z,8.10
2023-03-28T13:00:24.501Z,8.10
2023-03-28T13:03:10.058Z,8.10
2023-03-28T13:05:47.871Z,8.10
2023-03-28T13:08:24.553Z,8.10
2023-03-28T13:11:06.450Z,8.10
2023-03-28T13:13:44.086Z,8.10
2023-03-28T13:16:17.101Z,8.00
2023-03-28T13:18:50.456Z,7.90
2023-03-28T13:21:43.429Z,7.90
2023-03-28T13:24:29.855Z,7.90
2023-03-28T13:26:59.732Z,7.90
2023-03-28T13:29:46.490Z,7.90
2023-03-28T13:32:16.769Z,7.90
2023-03-28T13:34:51.354Z,7.90
2023-03-28T13:37:23.484Z,7.80
2023-03-28T13:39:59.632Z,7.90
2023-03-28T13:42:29.769Z,7.90
2023-03-28T13:45:00.972Z,7.90
2023-03-28T13:47:34.941Z,8.00
2023-03-28T13:50:11.653Z,8.10
2023-03-28T13:52:39.869Z,8.20
2023-03-28T13:55:20.650Z,8.20
2023-03-28T13:57:49.185Z,8.20
2023-03-28T14:00:21.184Z,8.20
2023-03-28T14:02:50.982Z,8.20
2023-03-28T14:05:24.000Z,8.30
2023-03-28T14:07:53.009Z,8.20
2023-03-28T14:10:23.273Z,8.30
2023-03-28T14:12:53.436Z,8.30
2023-03-28T14:15:25.720Z,8.20
2023-03-28T14:17:55.785Z,8.20
2023-03-28T14:20:26.312Z,8.20
2023-03-28T14:23:00.258Z,8.20
2023-03-28T14:25:29.655Z,8.20
2023-03-28T14:28:07.455Z,8.30
2023-03-28T14:30:40.590Z,8.30
2023-03-28T14:33:20.226Z,8.30
2023-03-28T14:35:59.825Z,8.40
2023-03-28T14:38:33.567Z,8.40
2023-03-28T14:41:27.498Z,8.40
2023-03-28T14:43:57.378Z,8.40
2023-03-28T14:46:28.755Z,8.40
2023-03-28T14:49:01.156Z,8.50
2023-03-28T14:51:41.072Z,8.50
2023-03-28T14:54:15.410Z,8.60
2023-03-28T14:56:44.075Z,8.60
2023-03-28T14:59:17.857Z,8.50
2023-03-28T15:01:49.001Z,8.50
2023-03-28T15:04:20.942Z,8.50
2023-03-28T15:06:56.417Z,8.50
2023-03-28T15:09:29.291Z,8.50
2023-03-28T15:12:00.180Z,8.60
2023-03-28T15:14:34.843Z,8.60
2023-03-28T15:17:03.357Z,8.60
2023-03-28T15:19:36.281Z,8.60
2023-03-28T15:22:10.453Z,8.60
2023-03-28T15:24:39.226Z,8.70
2023-03-28T15:27:13.383Z,8.70
2023-03-28T15:29:41.910Z,8.70
2023-03-28T15:32:17.515Z,8.60
2023-03-28T15:34:47.575Z,8.60
2023-03-28T15:37:21.342Z,8.60
2023-03-28T15:39:52.051Z,8.60
2023-03-28T15:42:35.150Z,8.70
2023-03-28T15:45:29.867Z,8.60
2023-03-28T15:47:58.519Z,8.60
2023-03-28T15:50:30.997Z,8.60
2023-03-28T15:53:03.398Z,8.60
2023-03-28T15:55:32.660Z,8.60
2023-03-28T15:58:00.892Z,8.60
2023-03-28T16:00:40.550Z,8.50
2023-03-28T16:03:30.387Z,8.60
2023-03-28T16:06:17.598Z,8.60
2023-03-28T16:08:58.334Z,8.60
2023-03-28T16:11:28.398Z,8.60
2023-03-28T16:13:56.340Z,8.60
2023-03-28T16:16:27.518Z,8.60
2023-03-28T16:18:55.899Z,8.60
2023-03-28T16:21:23.918Z,8.50
2023-03-28T16:23:53.210Z,8.50
2023-03-28T16:26:21.068Z,8.50
2023-03-28T16:28:48.954Z,8.50
2023-03-28T16:31:16.995Z,8.40
2023-03-28T16:33:44.900Z,8.30
2023-03-28T16:36:13.914Z,8.30
2023-03-28T16:38:41.879Z,8.20
2023-03-28T16:41:11.083Z,8.20
2023-03-28T16:43:40.112Z,8.20
2023-03-28T16:46:10.374Z,8.10
2023-03-28T16:48:39.681Z,8.10
2023-03-28T16:51:08.102Z,8.10
2023-03-28T16:53:37.928Z,8.10
2023-03-28T16:56:08.459Z,8.00
2023-03-28T16:58:37.713Z,8.00
2023-03-28T17:01:06.560Z,8.00
2023-03-28T17:03:34.635Z,8.00
2023-03-28T17:06:04.059Z,7.90
2023-03-28T17:08:31.983Z,7.90
2023-03-28T17:11:01.040Z,7.80
2023-03-28T17:13:29.355Z,7.80
2023-03-28T17:15:58.891Z,7.70
2023-03-28T17:18:27.050Z,7.70
2023-03-28T17:21:01.858Z,7.60
2023-03-28T17:23:30.457Z,7.60
2023-03-28T17:25:58.593Z,7.60
2023-03-28T17:28:27.858Z,7.50
2023-03-28T17:30:56.202Z,7.50
2023-03-28T17:33:29.343Z,7.50
2023-03-28T17:35:57.300Z,7.50
2023-03-28T17:38:25.640Z,7.50
2023-03-28T17:40:53.503Z,7.50
2023-03-28T17:43:21.355Z,7.50
2023-03-28T17:45:54.393Z,7.50
2023-03-28T17:48:22.572Z,7.50
2023-03-28T17:50:53.966Z,7.50
2023-03-28T17:53:22.385Z,7.50
2023-03-28T17:55:50.402Z,7.50
2023-03-28T17:58:18.285Z,7.50
2023-03-28T18:00:46.781Z,7.50
2023-03-28T18:03:14.741Z,7.40
2023-03-28T18:05:42.784Z,7.40
2023-03-28T18:08:12.155Z,7.40
2023-03-28T18:10:41.334Z,7.40
2023-03-28T18:13:09.346Z,7.40
2023-03-28T18:15:40.740Z,7.40
2023-03-28T18:18:08.996Z,7.40
2023-03-28T18:20:37.101Z,7.30
2023-03-28T18:23:05.007Z,7.40
2023-03-28T18:25:37.116Z,7.40
2023-03-28T18:28:05.216Z,7.40
2023-03-28T18:30:33.129Z,7.40
2023-03-28T18:33:01.755Z,7.40
2023-03-28T18:35:29.997Z,7.40
2023-03-28T18:37:58.428Z,7.40
2023-03-28T18:40:26.478Z,7.40
2023-03-28T18:42:55.810Z,7.40
2023-03-28T18:45:23.718Z,7.40
2023-03-28T18:47:51.801Z,7.40
2023-03-28T18:50:19.847Z,7.40
2023-03-28T18:52:47.799Z,7.40
2023-03-28T18:55:15.745Z,7.40
2023-03-28T18:57:43.611Z,7.40
2023-03-28T19:00:18.391Z,7.40
2023-03-28T19:02:46.879Z,7.40
2023-03-28T19:05:15.338Z,7.40
2023-03-28T19:07:43.566Z,7.40
2023-03-28T19:10:13.387Z,7.40
2023-03-28T19:12:42.253Z,7.40
2023-03-28T19:15:13.002Z,7.40
2023-03-28T19:17:41.280Z,7.40
2023-03-28T19:20:12.888Z,7.30
2023-03-28T19:22:40.855Z,7.40
2023-03-28T19:25:09.983Z,7.40
2023-03-28T19:27:38.324Z,7.40
2023-03-28T19:30:08.027Z,7.40
2023-03-28T19:32:37.332Z,7.40
2023-03-28T19:35:05.938Z,7.30
2023-03-28T19:37:33.856Z,7.40
2023-03-28T19:40:05.524Z,7.30
2023-03-28T19:42:33.548Z,7.40
2023-03-28T19:45:01.550Z,7.40
2023-03-28T19:47:29.550Z,7.40
2023-03-28T19:50:01.169Z,7.40
2023-03-28T19:52:29.146Z,7.40
2023-03-28T19:54:57.168Z,7.30
2023-03-28T19:57:25.287Z,7.30
2023-03-28T19:59:53.255Z,7.30
2023-03-28T20:02:21.192Z,7.30
2023-03-28T20:04:49.154Z,7.30
2023-03-28T20:07:19.401Z,7.30
2023-03-28T20:09:49.031Z,7.30
2023-03-28T20:12:17.456Z,7.30
2023-03-28T20:14:45.802Z,7.20
2023-03-28T20:17:14.058Z,7.20
2023-03-28T20:19:41.988Z,7.30
2023-03-28T20:22:09.974Z,7.20
2023-03-28T20:24:39.285Z,7.30
2023-03-28T20:27:07.833Z,7.30
2023-03-28T20:29:37.243Z,7.20
2023-03-28T20:32:05.424Z,7.20
2023-03-28T20:34:33.570Z,7.20
2023-03-28T20:37:01.484Z,7.20
2023-03-28T20:39:33.920Z,7.30
2023-03-28T20:42:05.727Z,7.30
2023-03-28T20:44:38.244Z,7.20
2023-03-28T20:47:07.783Z,7.30
2023-03-28T20:49:35.882Z,7.20
2023-03-28T20:52:03.825Z,7.20
2023-03-28T20:54:31.794Z,7.20
2023-03-28T20:56:59.754Z,7.20
2023-03-28T20:59:29.120Z,7.20
2023-03-28T21:01:57.398Z,7.20
2023-03-28T21:04:25.430Z,7.20
2023-03-28T21:06:57.502Z,7.10
2023-03-28T21:09:25.522Z,7.10
2023-03-28T21:11:53.383Z,7.10
2023-03-28T21:14:21.359Z,7.10
2023-03-28T21:16:51.571Z,7.00
2023-03-28T21:19:20.756Z,7.00
2023-03-28T21:21:48.659Z,7.00
2023-03-28T21:24:17.833Z,7.00
2023-03-28T21:26:45.734Z,7.00
2023-03-28T21:29:13.612Z,6.90
2023-03-28T21:31:42.887Z,6.90
2023-03-28T21:34:12.220Z,6.90
2023-03-28T21:36:40.284Z,6.90
2023-03-28T21:39:11.216Z,6.90
2023-03-28T21:41:39.101Z,6.80
2023-03-28T21:44:07.096Z,6.80
2023-03-28T21:46:35.647Z,6.70
2023-03-28T21:49:03.651Z,6.70
2023-03-28T21:51:33.230Z,6.70
2023-03-28T21:54:01.123Z,6.70
2023-03-28T21:56:29.139Z,6.70
2023-03-28T21:58:57.052Z,6.70
2023-03-28T22:01:24.995Z,6.70
2023-03-28T22:03:52.936Z,6.70
2023-03-28T22:06:20.843Z,6.70
2023-03-28T22:08:52.309Z,6.60
2023-03-28T22:11:28.013Z,6.60
2023-03-28T22:14:02.362Z,6.60
2023-03-28T22:16:32.361Z,6.60
2023-03-28T22:19:00.714Z,6.60
2023-03-28T22:21:31.470Z,6.60
2023-03-28T22:24:02.878Z,6.60
2023-03-28T22:26:31.141Z,6.60
2023-03-28T22:28:59.619Z,6.70
2023-03-28T22:31:27.974Z,6.70
2023-03-28T22:33:56.507Z,6.60
2023-03-28T22:36:24.392Z,6.70
2023-03-28T22:38:54.643Z,6.60
2023-03-28T22:41:24.729Z,6.60
2023-03-28T22:43:52.620Z,6.60
2023-03-28T22:46:21.160Z,6.60
2023-03-28T22:48:54.138Z,6.60
2023-03-28T22:51:24.982Z,6.60
2023-03-28T22:53:53.235Z,6.60
2023-03-28T22:56:23.327Z,6.60
2023-03-28T22:58:53.933Z,6.60
2023-03-28T23:01:23.088Z,6.60
2023-03-28T23:03:51.959Z,6.60
2023-03-28T23:06:20.180Z,6.60
2023-03-28T23:08:48.178Z,6.60
2023-03-28T23:11:16.072Z,6.60
2023-03-28T23:13:44.112Z,6.60
2023-03-28T23:16:13.506Z,6.60
2023-03-28T23:18:41.575Z,6.60
2023-03-28T23:21:09.664Z,6.60
2023-03-28T23:23:37.646Z,6.60
2023-03-28T23:26:06.419Z,6.60
2023-03-28T23:28:34.367Z,6.60
2023-03-28T23:31:02.645Z,6.60
2023-03-28T23:33:32.471Z,6.60
2023-03-28T23:36:00.867Z,6.60
2023-03-28T23:38:29.197Z,6.60
2023-03-28T23:40:59.966Z,6.60
2023-03-28T23:43:27.986Z,6.50
2023-03-28T23:45:55.832Z,6.50
2023-03-28T23:48:23.784Z,6.50
2023-03-28T23:50:52.988Z,6.50
2023-03-28T23:53:20.930Z,6.50
2023-03-28T23:55:48.790Z,6.50
2023-03-28T23:58:16.824Z,6.40
